Flight Track Log - Related Links

Times and Time Zones

All times are in EDT time to prevent confusion due to time zone crossing. See the SWA1718 flight status page for this flight to view local times or setup timezone preferences in your user account.

Time Position Orientation Groundspeed Altitude Reporting Facility
EDT Latitude Longitude Course Direction KTS MPH feet Rate Location/Type
Thu 07:07:50 PM 39.9431 -104.6264 65° Northeast 243 280 9,100  Level Denver Center
Thu 07:08:52 PM 39.9417 -104.5264 91° East 271 312 10,000 435 Climbing Denver Center
Thu 07:09:54 PM 39.9364 -104.4189 94° East 275 316 10,000 629 Level Denver Center
Thu 07:10:56 PM 39.9283 -104.3150 96° East 291 335 11,300 1,645 Climbing Denver Center
Thu 07:11:58 PM 39.9208 -104.1897 94° East 322 371 13,400 2,081 Climbing Denver Center
Thu 07:13:00 PM 39.9094 -104.0611 97° East 355 409 15,600 2,064 Climbing Denver Center
Thu 07:14:03 PM 39.8994 -103.9289 96° East 366 421 17,700 1,968 Climbing Denver Center
Thu 07:15:05 PM 39.8881 -103.7819 96° East 381 438 19,700 1,935 Climbing Denver Center
Thu 07:16:07 PM 39.8944 -103.6372 87° East 382 440 21,700 1,645 Climbing Denver Center
Thu 07:17:09 PM 39.9100 -103.5014 81° East 394 453 23,100 1,597 Climbing Denver Center
Thu 07:18:11 PM 39.9267 -103.3433 82° East 414 476 25,000 1,500 Climbing Denver Center
Thu 07:19:13 PM 39.9436 -103.2022 81° East 415 478 26,200 1,258 Climbing Denver Center
Thu 07:20:15 PM 39.9625 -103.0303 82° East 426 490 27,600 1,306 Climbing Denver Center
Thu 07:21:17 PM 39.9783 -102.8808 82° East 434 499 28,900 1,548 Climbing Denver Center
Thu 07:22:19 PM 39.9975 -102.7083 82° East 432 497 30,800 1,548 Climbing Denver Center
Thu 07:23:21 PM 40.0119 -102.5644 82° East 423 487 32,100 1,191 Climbing Denver Center
Thu 07:24:35 PM 40.0303 -102.3972 82° East 419 482 33,500 1,191 Climbing Denver Center
Thu 07:25:37 PM 40.0494 -102.2097 82° East 410 472 34,800 726 Climbing Denver Center
Thu 07:26:39 PM 40.0633 -102.0697 83° East 409 471 35,000 97 Climbing Denver Center
Thu 07:27:41 PM 40.0775 -101.9283 82° East 410 472 35,000  Level Denver Center
Thu 07:28:43 PM 40.0942 -101.7647 82° East 409 471 35,000  Level Denver Center
Thu 07:29:45 PM 40.1078 -101.6236 83° East 410 472 35,000  Level Denver Center
Thu 07:30:47 PM 40.1244 -101.4586 82° East 411 473 35,000  Level Denver Center
Thu 07:31:49 PM 40.1369 -101.3175 83° East 410 472 35,000  Level Denver Center
Thu 07:32:51 PM 40.1528 -101.1511 83° East 414 476 35,000  Level Denver Center
Thu 07:33:53 PM 40.1667 -101.0103 83° East 411 473 35,000  Level Denver Center
Thu 07:34:55 PM 40.1819 -100.8425 83° East 416 479 35,000  Level Denver Center
Thu 07:35:57 PM 40.1944 -100.6994 83° East 416 479 35,000  Level Denver Center
Thu 07:36:59 PM 40.2042 -100.5311 86° East 417 480 35,000  Level Denver Center
Thu 07:38:01 PM 40.2069 -100.3883 88° East 412 474 35,000  Level Denver Center
Thu 07:39:03 PM 40.2097 -100.2194 89° East 417 480 35,000  Level Denver Center
Thu 07:40:05 PM 40.2117 -100.0764 89° East 414 476 35,000  Level Denver Center
Thu 07:41:07 PM 40.2133 -99.9081 89° East 415 478 35,000  Level Denver Center
Thu 07:42:09 PM 40.2150 -99.7742 89° East 414 476 35,000  Level Denver Center
Thu 07:43:11 PM 40.2172 -99.5922 89° East 418 481 35,000  Level Denver Center
Thu 07:44:13 PM 40.2186 -99.4414 89° East 417 480 35,000  Level Denver Center
Thu 07:45:15 PM 40.2200 -99.2900 89° East 418 481 35,000  Level Denver Center
Thu 07:46:17 PM 40.2211 -99.1383 89° East 418 481 35,000  Level Denver Center
Thu 07:47:19 PM 40.2414 -98.9886 80° East 421 484 35,000  Level Denver Center
Thu 07:48:21 PM 40.2633 -98.8344 79° East 431 496 35,000  Level Denver Center
Thu 07:49:05 PM 40.2797 -98.7106 80° East 432 497 35,000  Level Minneapolis Center
Thu 07:50:07 PM 40.3008 -98.5550 80° East 435 501 35,000  Level Minneapolis Center
Thu 07:51:09 PM 40.3264 -98.3664 80° East 438 504 35,000  Level Minneapolis Center
Thu 07:52:12 PM 40.3478 -98.2108 80° East 438 504 35,000  Level Minneapolis Center
Thu 07:53:14 PM 40.3689 -98.0531 80° East 439 505 35,000  Level Minneapolis Center
Thu 07:54:16 PM 40.3897 -97.8953 80° East 440 506 35,000  Level Minneapolis Center
Thu 07:55:18 PM 40.4106 -97.7369 80° East 441 507 35,000  Level Minneapolis Center
Thu 07:56:20 PM 40.4286 -97.5783 81° East 441 507 35,000  Level Minneapolis Center
Thu 07:57:22 PM 40.4525 -97.3911 80° East 436 502 35,000  Level Minneapolis Center
Thu 07:58:25 PM 40.4711 -97.2450 80° East 434 499 35,000  Level Minneapolis Center
Thu 07:59:27 PM 40.4900 -97.0900 81° East 431 496 35,000  Level Minneapolis Center
Thu 08:00:29 PM 40.5097 -96.9353 80° East 430 495 35,000  Level Minneapolis Center
Thu 08:01:31 PM 40.5311 -96.7472 81° East 434 499 35,000  Level Minneapolis Center
Thu 08:02:33 PM 40.5508 -96.5906 81° East 436 502 35,000  Level Minneapolis Center
Thu 08:03:35 PM 40.5697 -96.4339 81° East 436 502 35,000  Level Minneapolis Center
Thu 08:04:37 PM 40.5875 -96.2769 81° East 436 502 35,000  Level Minneapolis Center
Thu 08:05:39 PM 40.6050 -96.1206 82° East 435 501 35,000  Level Minneapolis Center
Thu 08:06:41 PM 40.6222 -95.9633 82° East 436 502 35,000  Level Minneapolis Center
Thu 08:07:43 PM 40.6450 -95.7736 81° East 439 505 35,000  Level Minneapolis Center
Thu 08:08:44 PM 40.6581 -95.6461 82° East 440 506 35,000  Level Minneapolis Center
Thu 08:09:47 PM 40.6789 -95.4539 82° East 444 511 35,000  Level Minneapolis Center
Thu 08:10:48 PM 40.6942 -95.3253 81° East 446 513 35,000  Level Minneapolis Center
Thu 08:11:51 PM 40.7142 -95.1319 82° East 446 513 35,000  Level Minneapolis Center
Thu 08:12:53 PM 40.7339 -94.9392 82° East 444 511 35,000  Level Minneapolis Center
Thu 08:13:55 PM 40.7508 -94.7767 82° East 447 514 35,000  Level Minneapolis Center
Thu 08:14:56 PM 40.7672 -94.6167 82° East 444 511 35,000  Level Minneapolis Center
Thu 08:15:58 PM 40.7808 -94.4675 83° East 445 512 35,000  Level Minneapolis Center
Thu 08:17:00 PM 40.7989 -94.2731 83° East 447 514 35,000  Level Minneapolis Center
Thu 08:18:02 PM 40.8147 -94.1117 83° East 447 514 35,000  Level Minneapolis Center
Thu 08:19:04 PM 40.8258 -93.9825 83° East 447 514 35,000  Level Minneapolis Center
Thu 08:20:06 PM 40.8458 -93.7869 82° East 449 517 35,000  Level Minneapolis Center
Thu 08:21:08 PM 40.8614 -93.6231 83° East 451 519 35,000  Level Minneapolis Center
Thu 08:22:10 PM 40.8764 -93.4581 83° East 454 522 35,000  Level Minneapolis Center
Thu 08:23:12 PM 40.8942 -93.2583 83° East 457 526 35,000  Level Minneapolis Center
Thu 08:24:14 PM 40.9094 -93.0900 83° East 461 531 35,000  Level Minneapolis Center
Thu 08:25:15 PM 40.9214 -92.9567 83° East 461 531 35,000  Level Minneapolis Center
Thu 08:25:38 PM 40.9294 -92.8547 84° East 460 529 35,000  Level Chicago Center
Thu 08:26:40 PM 40.9439 -92.6908 83° East 453 521 35,000  Level Chicago Center
Thu 08:27:42 PM 40.9575 -92.5228 84° East 457 526 35,000 -290 Level Chicago Center
Thu 08:28:44 PM 40.9711 -92.3531 84° East 461 531 34,400 -726 Descending Chicago Center
Thu 08:29:46 PM 40.9844 -92.1853 84° East 462 532 33,500 -677 Descending Chicago Center
Thu 08:30:48 PM 40.9997 -91.9836 84° East 460 529 33,000 -242 Descending Chicago Center
Thu 08:31:50 PM 41.0128 -91.8150 84° East 462 532 33,000  Level Chicago Center
Thu 08:32:52 PM 41.0264 -91.6439 84° East 464 534 33,000  Level Chicago Center
Thu 08:33:54 PM 41.0381 -91.4747 85° East 463 533 33,000  Level Chicago Center
Thu 08:34:56 PM 41.0489 -91.3061 85° East 461 531 33,000 -1,152 Level Chicago Center
Thu 08:35:59 PM 41.0625 -91.1392 84° East 457 526 30,600 -2,544 Descending Chicago Center
Thu 08:37:01 PM 41.0764 -90.9453 85° East 444 511 27,700 -2,565 Descending Chicago Center
Thu 08:38:03 PM 41.0867 -90.7861 85° East 434 499 25,300 -1,984 Descending Chicago Center
Thu 08:39:05 PM 41.0967 -90.6297 85° East 426 490 23,600 -1,306 Descending Chicago Center
Thu 08:40:07 PM 41.1058 -90.4778 85° East 416 479 22,600 -968 Descending Chicago Center
Thu 08:41:09 PM 41.1156 -90.3289 85° East 403 464 21,600 -919 Descending Chicago Center
Thu 08:42:11 PM 41.1261 -90.1775 85° East 407 468 20,700 -919 Descending Chicago Center
Thu 08:43:13 PM 41.1350 -90.0183 86° East 425 489 19,700 -968 Descending Chicago Center
Thu 08:44:15 PM 41.1436 -89.8633 86° East 421 484 18,700 -1,113 Descending Chicago Center
Thu 08:45:17 PM 41.1556 -89.6819 85° East 411 473 17,400 -1,113 Descending Chicago Center
Thu 08:46:19 PM 41.1639 -89.5311 86° East 408 470 16,400 -1,056 Descending Chicago Center
Thu 08:47:22 PM 41.1731 -89.3936 85° East 381 438 15,200 -1,104 Descending Chicago Center
Thu 08:48:24 PM 41.1814 -89.2683 85° East 342 394 14,100 -968 Descending Chicago Center
Thu 08:49:26 PM 41.1897 -89.1544 84° East 326 375 13,200 -1,016 Descending Chicago Center
Thu 08:50:28 PM 41.1981 -89.0117 86° East 324 373 12,000 -1,065 Descending Chicago Center
Thu 08:51:30 PM 41.2058 -88.8956 85° East 320 368 11,000 -968 Descending Chicago Center
Thu 08:52:32 PM 41.2261 -88.7914 75° East 310 357 10,000 -823 Descending Chicago Center
Thu 08:53:34 PM 41.2775 -88.7175 47° Northeast 274 315 9,300 -871 Descending Chicago Center
Thu 08:54:36 PM 41.3281 -88.6464 47° Northeast 267 307 8,200 -1,210 Descending Chicago Center
Thu 08:55:38 PM 41.3839 -88.5608 49° Northeast 257 296 6,800 -1,065 Descending Chicago Center
Thu 08:56:40 PM 41.4283 -88.4900 50° Northeast 252 290 6,000 -435 Descending Chicago Center
Thu 08:57:42 PM 41.4600 -88.4075 63° Northeast 250 288 5,900 -571 Descending Chicago Center
Thu 08:58:46 PM 41.4922 -88.3242 63° Northeast 252 290 4,800 -891 Descending Chicago Center
Thu 08:59:50 PM 41.5303 -88.2297 62° Northeast 242 278 4,000 -381 Descending Chicago Center
Thu 09:00:52 PM 41.5622 -88.1508 62° Northeast 240 276 4,000  Level Chicago Center
Thu 09:01:54 PM 41.5933 -88.0711 62° Northeast 241 277 4,000 48 Level Chicago Center
Thu 09:02:56 PM 41.6231 -87.9942 63° Northeast 236 272 4,100 48 Climbing Chicago Center
Thu 09:03:58 PM 41.6522 -87.9197 62° Northeast 231 266 4,100 -626 Level Chicago Center
Thu 09:04:51 PM 41.7000 -87.8667 40° Northeast 211 243 2,900 -1,221 Descending Chicago TRACON
Thu 09:05:51 PM 41.7333 -87.8167 48° Northeast 173 199 1,800 -905 Descending Chicago TRACON
Thu 09:06:57 PM 41.7667 -87.7833 37° Northeast 134 154 1,000 -727 Descending Chicago TRACON
Thu 09:09:00 PM 41.7833 -87.7500 51° Northeast  Level FlightAware Approximate

Login

Don't have an account? Register now (free) for customized features, flight alerts, and more!